Decoded Metar for KMLF (MILFORD in UT, USA) (IATA:MLF) | Meteo·Mobile Aviation Weather
aviador You're here:

KMLF Decoded Metar

MILFORD in UT, USA
Report Time2018-08-22 06:52:00
UTC Time2018-08-22 06:57:23
Flight Rules vfr VFR
Wind210° at 15 kt
W.Decomp.*RWY 16: 12.3 kt HW 8.6 kt RCW
W.Rank210° ranks 3
Current wind is above 210° avg. (12.7)
Visibility9999 m
Phenomena:N/A
Clouds:N/A
Expected CloudBase > 4,000 ft AGL from Temp-Dew spread
CeilingNone
Temp22°C (ISA +17)
Dew Point12°C (53% RH)
AAT17.2°C
QNH1020 hPa
Density Alt6,955 ft
Elevation5,033 ft
Report Wrong Elevation
Raw Report
KMLF 220652Z AUTO 21015KT 10SM CLR 22/12 A3011 RMK AO2 WSHFT 0631
SLP116 T02220117 403440217 $=

Extra information for KMLF:More info

Metar Taf Metar & Taf Last 4 Metars F.Rules Stats Wind Profile Meteogram Temp Stats Airport Information Weather charts Add Link Nearby VenuesMetar ALERT Operation Metar Decoded Social comments

AIRNAV info for KMLF